UTSB

Bukhara Airport

Bukhara, Uzbekistan
TAF UTSB 202300Z 2100/2124 VRB03KT 7000 NSC TEMPO 2100/2105 13012KT 3500 BR TEMPO 2105/2112 18016G26KT 2500 -DS SCT010
Issued Valid From Valid To
Apr-20 @ 23:00 UTC
(5 hours ago)
Apr-21 @ 00:00 UTC
(4 hours ago)
Apr-22 @ 00:00 UTC
(in 20 hours)
Apr-21 @ 00:00 to Apr-22 @ 00:00
TAF UTSB 202300Z 2100/2124 VRB03KT 7000 NSC
Wind Visibility Clouds
Variable at 3 knots 7,001 meters
  • No significant clouds
Temporary Apr-21 @ 00:00 to Apr-21 @ 05:00
TEMPO 2100/2105 13012KT 3500 BR
Wind Visibility Conditions
130° at 12 knots 3,492 meters
  • Mist
Temporary Apr-21 @ 05:00 to Apr-21 @ 12:00
TEMPO 2105/2112 18016G26KT 2500 -DS SCT010
Wind Visibility Clouds Conditions
180° at 16 knots
 Gusting to 26 knots
2,494 meters
  • Scattered at 1,000' AGL
  • Light Duststorm
TAF UTSB 202300Z 2100/2124 VRB03KT 7000 NSC TEMPO 2100/2105 13012KT 3500 BR TEMPO 2105/2112 18016G26KT 2500 -DS SCT010
Issued Apr-20 @ 23:00 UTC
(5 hours ago)
Valid From Apr-21 @ 00:00 UTC
(4 hours ago)
Valid To Apr-22 @ 00:00 UTC
(in 20 hours)
Apr-21 @ 00:00 - Apr-22 @ 00:00
Wind Visibility
Variable at 3 knots 7,001 meters
Clouds
  • No significant clouds
Temporary Apr-21 @ 00:00 - Apr-21 @ 05:00
Wind Visibility
130° at 12 knots 3,492 meters
Conditions
  • Mist
Temporary Apr-21 @ 05:00 - Apr-21 @ 12:00
Wind Visibility
180° at 16 knots
 Gusting to 26 knots
2,494 meters
Clouds
  • Scattered at 1,000' AGL
Conditions
  • Light Duststorm